Πλησιέστερες Αναφορές METAR

 

LGTS - Thessaloniki/Makedonia-Elev 7m
Απόσταση από σταθμό: Ν 13km
Ενημερώθηκε: 30/01/2023 00:20
Διάσπαρτα Νέφη
Διάσπαρτα Νέφη
 Ανεμοι από ΒΒΔ
Ανεμος: ΒΒΔ 11 km/h
Θερμοκρασία: 6°C
Δείκτης Ψύχρας: 4°C
Σημείο Δρόσου: 0°C
Υγρασία: 66%
Βαρόμετρο: 1021 hPa
Νέφωση: Διάσπαρτα Νέφη
Ορατότητα: 10 km
Λεπτομέρειες Νεφών: Διάσπαρτα Νέφη 914 m
2023/01/29 22:20 LGTS 292220Z 34006KT 9999 FEW030 06/M00 Q1021 NOSIG
LGAV - Athens/Elef. Venizelos-Elev 94m
Απόσταση από σταθμό: ΝΝΑ 312km
Ενημερώθηκε: 30/01/2023 00:20
Διάσπαρτα Νέφη
Διάσπαρτα Νέφη
 Ανεμοι από ΒΒΑ
Ανεμος: ΒΒΑ 15 km/h
Θερμοκρασία: 7°C
Δείκτης Ψύχρας: 4°C
Σημείο Δρόσου: 3°C
Υγρασία: 76%
Βαρόμετρο: 1018 hPa
Νέφωση: Διάσπαρτα Νέφη
Ορατότητα: 10 km
Λεπτομέρειες Νεφών: Διάσπαρτα Νέφη 762 m
2023/01/29 22:20 LGAV 292220Z 02008KT 9999 FEW025 07/03 Q1018 NOSIG
 
LGAL - Alexandroupolis-Elev 3m
Απόσταση από σταθμό: Α 251km
Ενημερώθηκε: 29/01/2023 23:50
Μερικώς νεφελώδης
Μερικώς νεφελώδης
 Ανεμοι από ΒΑ
Ανεμος: ΒΑ 9 km/h
Θερμοκρασία: 3°C
Δείκτης Ψύχρας: 0°C
Σημείο Δρόσου: 0°C
Υγρασία: 81%
Βαρόμετρο: 1020 hPa
Νέφωση: Μερικώς νεφελώδης
Ορατότητα: 10 km
Λεπτομέρειες Νεφών: Διάσπαρτα Νέφη 457 m
Μερικώς νεφελώδης 1067 m
2023/01/29 21:50 LGAL 292150Z 05005KT 9999 FEW015 SCT035 03/00 Q1020
LGKV - Kavala/Crysoupolis-Elev 5m
Απόσταση από σταθμό: ΑΒΑ 144km
Ενημερώθηκε: 29/01/2023 20:20
ΜΗ Ενημερωμένο METAR!
Συννεφιά
Συννεφιά
 Ανεμοι από ΒΑ
Ανεμος: ΒΑ 9 km/h
Θερμοκρασία: 6°C
Δείκτης Ψύχρας: 4°C
Σημείο Δρόσου: 4°C
Υγρασία: 87%
Βαρόμετρο: 1020 hPa
Νέφωση: Συννεφιά
Ορατότητα: 10 km
Λεπτομέρειες Νεφών: Διάσπαρτα Νέφη 549 m
Σχεδόν νεφελώδης 914 m
Συννεφιά 2134 m
2023/01/29 18:20 LGKV 291820Z 05005KT 9999 FEW018 BKN030 OVC070 06/04 Q1020
 
LGSK - Skiathos Island-Elev 15m
Απόσταση από σταθμό: ΝΝΑ 168km
Ενημερώθηκε: 28/01/2023 15:50
ΜΗ Ενημερωμένο METAR!
Διάσπαρτα Νέφη
Διάσπαρτα Νέφη
 Ανεμοι από Β
Ανεμος: Β 9 km/h
Θερμοκρασία: 11°C
Σημείο Δρόσου: 5°C
Υγρασία: 67%
Βαρόμετρο: 1012 hPa
Νέφωση: Διάσπαρτα Νέφη
Ορατότητα: 10 km
Λεπτομέρειες Νεφών: Διάσπαρτα Νέφη 762 m
2023/01/28 13:50 LGSK 281350Z 35005KT 9999 FEW025 11/05 Q1012
LGLM - Limnos Island-Elev 5m
Απόσταση από σταθμό: ΑΝΑ 210km
Ενημερώθηκε: 29/01/2023 23:50
Μερικώς νεφελώδης
Μερικώς νεφελώδης
 Ανεμοι από ΑΒΑ
Ανεμος: ΑΒΑ 19 km/h
Θερμοκρασία: 7°C
Δείκτης Ψύχρας: 4°C
Σημείο Δρόσου: 0°C
Υγρασία: 61%
Βαρόμετρο: 1019 hPa
Νέφωση: Μερικώς νεφελώδης
Ορατότητα: 10 km
Λεπτομέρειες Νεφών: Μερικώς νεφελώδης 762 m
2023/01/29 21:50 LGLM 292150Z 06010KT 9999 SCT025 07/M00 Q1019
 
LGMT - Mitilini Island-Elev 17m
Απόσταση από σταθμό: ΑΝΑ 358km
Ενημερώθηκε: 29/01/2023 22:50
ΜΗ Ενημερωμένο METAR!
Διάσπαρτα Νέφη
Διάσπαρτα Νέφη
 Ανεμοι από Β
Ανεμος: Β 7 km/h
Θερμοκρασία: 7°C
Δείκτης Ψύχρας: 6°C
Σημείο Δρόσου: 5°C
Υγρασία: 87%
Βαρόμετρο: 1018 hPa
Νέφωση: Διάσπαρτα Νέφη
Ορατότητα: 10 km
Λεπτομέρειες Νεφών: Διάσπαρτα Νέφη 610 m
2023/01/29 20:50 LGMT 292050Z 35004KT 9999 FEW020 07/05 Q1018
LGSY - Skiros Island-Elev 15m
Απόσταση από σταθμό: ΝΑ 227km
Ενημερώθηκε: 29/01/2023 19:50
ΜΗ Ενημερωμένο METAR!
Drizzle, Σχεδόν νεφελώδης
Drizzle, Σχεδόν νεφελώδης
 Ανεμοι από Β
Ανεμος: Β 20 km/h
Θερμοκρασία: 8°C
Δείκτης Ψύχρας: 4°C
Σημείο Δρόσου: 5°C
Υγρασία: 82%
Βαρόμετρο: 1018 hPa
Περίληψη: Drizzle
Νέφωση: Σχεδόν νεφελώδης
Ορατότητα: 10 km
Λεπτομέρειες Νεφών: Διάσπαρτα Νέφη 244 m
Σχεδόν νεφελώδης 488 m
2023/01/29 17:50 LGSY 291750Z 36011KT 9999 DZ FEW008 BKN016 08/05 Q1018 RMK OVC080 BLU
 
LGKZ - Kozani-Elev 628m
Απόσταση από σταθμό: ΔΝΔ 102km
Ενημερώθηκε: 30/01/2023 00:20

 Ανεμοι από μεταβλητός
Ανεμος: μεταβλητός 4 km/h
Θερμοκρασία: 1°C
Σημείο Δρόσου: -5°C
Υγρασία: 65%
Βαρόμετρο: 1019 hPa
2023/01/29 22:20 LGKZ 292220Z AUTO VRB02KT //// // ////// 01/M05 Q1019 RE//
LGIO - Ioannina-Elev 476m
Απόσταση από σταθμό: ΔΝΔ 209km
Ενημερώθηκε: 30/01/2023 00:20

 Ανεμοι από μεταβλητός
Ανεμος: μεταβλητός 2 km/h
Θερμοκρασία: -1°C
Σημείο Δρόσου: -2°C
Υγρασία: 93%
Βαρόμετρο: 1017 hPa
2023/01/29 22:20 LGIO 292220Z AUTO VRB01KT //// // ////// M01/M02 Q1017 RE//
 
LGZA - Zakinthos-Elev 3m
Απόσταση από σταθμό: ΝΝΔ 367km
Ενημερώθηκε: 29/01/2023 19:50
ΜΗ Ενημερωμένο METAR!
Σχεδόν νεφελώδης
Σχεδόν νεφελώδης
 Ανεμοι από μεταβλητός
Ανεμος: μεταβλητός 4 km/h
Θερμοκρασία: 11°C
Σημείο Δρόσου: 8°C
Υγρασία: 82%
Βαρόμετρο: 1016 hPa
Νέφωση: Σχεδόν νεφελώδης
Ορατότητα: 10 km
Λεπτομέρειες Νεφών: Μερικώς νεφελώδης 549 m
Σχεδόν νεφελώδης 2134 m
2023/01/29 17:50 LGZA 291750Z VRB02KT 9999 SCT018 BKN070 11/08 Q1016
LGKR - Corfu Island-Elev 2m
Απόσταση από σταθμό: ΔΝΔ 282km
Ενημερώθηκε: 29/01/2023 23:50
Διάσπαρτα Νέφη
Διάσπαρτα Νέφη
 Ανεμοι από άπνοια
Ανεμος: άπνοια
Θερμοκρασία: 5°C
Σημείο Δρόσου: 3°C
Υγρασία: 87%
Βαρόμετρο: 1016 hPa
Νέφωση: Διάσπαρτα Νέφη
Ορατότητα: 10 km
Λεπτομέρειες Νεφών: Διάσπαρτα Νέφη 549 m
2023/01/29 21:50 LGKR 292150Z 00000KT 9999 FEW018 05/03 Q1016 NOSIG
 
LGSO - Syros Island-Elev 72m
Απόσταση από σταθμό: ΝΝΑ 397km
Ενημερώθηκε: 30/01/2023 00:20
Ασθενής βροχή
Ασθενής βροχή
 Ανεμοι από ΒΒΑ
Ανεμος: ΒΒΑ 31 km/h
Θερμοκρασία: 11°C
Σημείο Δρόσου: 4°C
Υγρασία: 62%
Βαρόμετρο: 1016 hPa
Περίληψη: Ασθενής βροχή
2023/01/29 22:20 LGSO 292220Z AUTO 02017KT //// -RA ////// 11/04 Q1016 RE//
LGMK - Mikonos Island-Elev 123m
Απόσταση από σταθμό: ΝΝΑ 412km
Ενημερώθηκε: 29/01/2023 19:50
ΜΗ Ενημερωμένο METAR!
Μερικώς νεφελώδης
Μερικώς νεφελώδης
 Ανεμοι από Β
Ανεμος: Β 19 km/h
Θερμοκρασία: 10°C
Δείκτης Ψύχρας: 7°C
Σημείο Δρόσου: 6°C
Υγρασία: 76%
Βαρόμετρο: 1014 hPa
Νέφωση: Μερικώς νεφελώδης
Ορατότητα: 10 km
Λεπτομέρειες Νεφών: Διάσπαρτα Νέφη 366 m
Μερικώς νεφελώδης 610 m
2023/01/29 17:50 LGMK 291750Z 01010KT 9999 FEW012 SCT020 10/06 Q1014
 
LGSR - Santorini Island-Elev 40m
Απόσταση από σταθμό: ΝΝΑ 520km
Ενημερώθηκε: 29/01/2023 21:50
ΜΗ Ενημερωμένο METAR!
Μερικώς νεφελώδης
Μερικώς νεφελώδης
 Ανεμοι από Β
Ανεμος: Β 19 km/h
Θερμοκρασία: 12°C
Σημείο Δρόσου: 6°C
Υγρασία: 67%
Βαρόμετρο: 1015 hPa
Νέφωση: Μερικώς νεφελώδης
Ορατότητα: 10 km
Λεπτομέρειες Νεφών: Μερικώς νεφελώδης 610 m
2023/01/29 19:50 LGSR 291950Z 36010KT 9999 SCT020 12/06 Q1015
LGKL - Kalamata-Elev 8m
Απόσταση από σταθμό: Ν 405km
Ενημερώθηκε: 30/01/2023 00:20
Μερικώς νεφελώδης
Μερικώς νεφελώδης
 Ανεμοι από ΒΒΔ
Ανεμος: ΒΒΔ 9 km/h
Θερμοκρασία: 7°C
Δείκτης Ψύχρας: 6°C
Σημείο Δρόσου: 5°C
Υγρασία: 87%
Βαρόμετρο: 1017 hPa
Νέφωση: Μερικώς νεφελώδης
Ορατότητα: 10 km
Λεπτομέρειες Νεφών: Διάσπαρτα Νέφη 762 m
Μερικώς νεφελώδης 2438 m
2023/01/29 22:20 LGKL 292220Z 33005KT 9999 FEW025 SCT080 07/05 Q1017
 
LGIR - Iraklion/Crete-Elev 5m
Απόσταση από σταθμό: ΝΝΑ 622km
Ενημερώθηκε: 30/01/2023 00:20
Μερικώς νεφελώδης
Μερικώς νεφελώδης
 Ανεμοι από Ν
Ανεμος: Ν 11 km/h
Θερμοκρασία: 9°C
Δείκτης Ψύχρας: 7°C
Σημείο Δρόσου: 7°C
Υγρασία: 87%
Βαρόμετρο: 1015 hPa
Νέφωση: Μερικώς νεφελώδης
Ορατότητα: 10 km
Λεπτομέρειες Νεφών: Διάσπαρτα Νέφη 549 m
Μερικώς νεφελώδης 762 m
2023/01/29 22:20 LGIR 292220Z 17006KT 9999 FEW018TCU SCT025 09/07 Q1015 NOSIG
LGRP - Rhodes-Elev 5m
Απόσταση από σταθμό: ΝΑ 649km
Ενημερώθηκε: 30/01/2023 00:20
Διάσπαρτα Νέφη
Διάσπαρτα Νέφη
 Ανεμοι από ΔΒΔ
Ανεμος: ΔΒΔ 13 km/h
Θερμοκρασία: 13°C
Σημείο Δρόσου: 7°C
Υγρασία: 67%
Βαρόμετρο: 1013 hPa
Νέφωση: Διάσπαρτα Νέφη
Ορατότητα: 10 km
Λεπτομέρειες Νεφών: Διάσπαρτα Νέφη 549 m
2023/01/29 22:20 LGRP 292220Z 29007KT 9999 FEW018 13/07 Q1013 NOSIG
 
LWOH - Ohrid/FYROM-Elev 761m
Απόσταση από σταθμό: ΔΒΔ 188km
Ενημερώθηκε: 29/01/2023 22:00
ΜΗ Ενημερωμένο METAR!
Σχεδόν νεφελώδης
Σχεδόν νεφελώδης
 Ανεμοι από Β
Ανεμος: Β 15 km/h
Θερμοκρασία: 1°C
Δείκτης Ψύχρας: -3°C
Σημείο Δρόσου: -6°C
Υγρασία: 60%
Βαρόμετρο: 1019 hPa
Νέφωση: Σχεδόν νεφελώδης
Ορατότητα: 10 km
Λεπτομέρειες Νεφών: Σχεδόν νεφελώδης 1219 m
2023/01/29 20:00 LWOH 292000Z 36008KT 9999 BKN040 01/M06 Q1019
LBSF - Sofia/Bulgaria-Elev 595m
Απόσταση από σταθμό: Β 227km
Ενημερώθηκε: 30/01/2023 00:30
Συννεφιά
Συννεφιά
 Ανεμοι από ΔΒΔ
Ανεμος: ΔΒΔ 15 km/h
Θερμοκρασία: -1°C
Δείκτης Ψύχρας: -6°C
Σημείο Δρόσου: -3°C
Υγρασία: 86%
Βαρόμετρο: 1020 hPa
Νέφωση: Συννεφιά
Ορατότητα: 10 km
Λεπτομέρειες Νεφών: Διάσπαρτα Νέφη 457 m
Συννεφιά 792 m
2023/01/29 22:30 LBSF 292230Z AUTO 29008KT 9999 FEW015/// OVC026/// M01/M03 Q1020 NOSIG